sensor_id;sensor_type;location;lat;lon;timestamp;P1;durP1;ratioP1;P2;durP2;ratioP2
545;SDS011;259;53.304;9.816;2024-03-06T00:02:25;3.97;;;3.67;;
545;SDS011;259;53.304;9.816;2024-03-06T00:04:51;4.97;;;4.63;;
545;SDS011;259;53.304;9.816;2024-03-06T00:07:16;4.50;;;4.20;;
545;SDS011;259;53.304;9.816;2024-03-06T00:09:42;3.63;;;3.43;;
545;SDS011;259;53.304;9.816;2024-03-06T00:12:08;4.17;;;3.77;;
545;SDS011;259;53.304;9.816;2024-03-06T00:14:34;4.57;;;4.27;;
545;SDS011;259;53.304;9.816;2024-03-06T00:17:01;4.30;;;3.90;;
545;SDS011;259;53.304;9.816;2024-03-06T00:19:29;4.33;;;4.03;;
545;SDS011;259;53.304;9.816;2024-03-06T00:21:55;4.20;;;3.90;;
545;SDS011;259;53.304;9.816;2024-03-06T00:24:21;4.53;;;4.10;;
545;SDS011;259;53.304;9.816;2024-03-06T00:26:48;4.00;;;3.70;;
545;SDS011;259;53.304;9.816;2024-03-06T00:29:14;4.20;;;3.90;;
545;SDS011;259;53.304;9.816;2024-03-06T00:31:43;4.20;;;3.90;;
545;SDS011;259;53.304;9.816;2024-03-06T00:34:10;3.63;;;3.40;;
545;SDS011;259;53.304;9.816;2024-03-06T00:36:39;5.87;;;4.57;;
545;SDS011;259;53.304;9.816;2024-03-06T00:39:05;4.37;;;4.07;;
545;SDS011;259;53.304;9.816;2024-03-06T00:41:33;4.00;;;3.70;;
545;SDS011;259;53.304;9.816;2024-03-06T00:43:59;4.60;;;4.30;;
545;SDS011;259;53.304;9.816;2024-03-06T00:46:25;4.63;;;4.33;;
545;SDS011;259;53.304;9.816;2024-03-06T00:48:50;5.07;;;4.67;;
545;SDS011;259;53.304;9.816;2024-03-06T00:51:16;3.97;;;3.77;;
545;SDS011;259;53.304;9.816;2024-03-06T00:53:42;4.20;;;3.90;;
545;SDS011;259;53.304;9.816;2024-03-06T00:56:09;4.27;;;3.97;;
545;SDS011;259;53.304;9.816;2024-03-06T00:58:35;4.20;;;3.90;;
545;SDS011;259;53.304;9.816;2024-03-06T01:01:00;4.20;;;3.90;;
545;SDS011;259;53.304;9.816;2024-03-06T01:03:26;4.67;;;4.27;;
545;SDS011;259;53.304;9.816;2024-03-06T01:05:52;4.23;;;3.80;;
545;SDS011;259;53.304;9.816;2024-03-06T01:08:18;4.80;;;4.30;;
545;SDS011;259;53.304;9.816;2024-03-06T01:10:44;4.73;;;4.00;;
545;SDS011;259;53.304;9.816;2024-03-06T01:13:10;4.30;;;4.00;;
545;SDS011;259;53.304;9.816;2024-03-06T01:15:38;4.77;;;4.47;;
545;SDS011;259;53.304;9.816;2024-03-06T01:18:04;4.00;;;3.70;;
545;SDS011;259;53.304;9.816;2024-03-06T01:20:30;4.20;;;3.90;;
545;SDS011;259;53.304;9.816;2024-03-06T01:22:56;3.63;;;3.43;;
545;SDS011;259;53.304;9.816;2024-03-06T01:25:21;4.00;;;3.70;;
545;SDS011;259;53.304;9.816;2024-03-06T01:27:48;3.97;;;3.67;;
545;SDS011;259;53.304;9.816;2024-03-06T01:30:14;3.93;;;3.63;;
545;SDS011;259;53.304;9.816;2024-03-06T01:32:40;4.10;;;3.80;;
545;SDS011;259;53.304;9.816;2024-03-06T01:35:06;4.10;;;3.80;;
545;SDS011;259;53.304;9.816;2024-03-06T01:37:32;4.13;;;3.83;;
545;SDS011;259;53.304;9.816;2024-03-06T01:39:58;4.00;;;3.70;;
545;SDS011;259;53.304;9.816;2024-03-06T01:42:24;4.60;;;4.20;;
545;SDS011;259;53.304;9.816;2024-03-06T01:44:49;3.90;;;3.60;;
545;SDS011;259;53.304;9.816;2024-03-06T01:47:15;3.57;;;3.37;;
545;SDS011;259;53.304;9.816;2024-03-06T01:49:41;3.87;;;3.60;;
545;SDS011;259;53.304;9.816;2024-03-06T01:52:08;3.73;;;3.50;;
545;SDS011;259;53.304;9.816;2024-03-06T01:54:38;4.37;;;4.07;;
545;SDS011;259;53.304;9.816;2024-03-06T01:57:04;3.83;;;3.53;;
545;SDS011;259;53.304;9.816;2024-03-06T01:59:32;3.53;;;3.33;;
545;SDS011;259;53.304;9.816;2024-03-06T02:01:57;4.77;;;4.37;;
545;SDS011;259;53.304;9.816;2024-03-06T02:04:26;4.17;;;3.87;;
545;SDS011;259;53.304;9.816;2024-03-06T02:06:53;4.67;;;4.33;;
545;SDS011;259;53.304;9.816;2024-03-06T02:09:19;4.13;;;3.83;;
545;SDS011;259;53.304;9.816;2024-03-06T02:11:45;4.23;;;3.93;;
545;SDS011;259;53.304;9.816;2024-03-06T02:14:11;4.43;;;4.13;;
545;SDS011;259;53.304;9.816;2024-03-06T02:16:37;4.40;;;4.13;;
545;SDS011;259;53.304;9.816;2024-03-06T02:19:06;4.20;;;3.90;;
545;SDS011;259;53.304;9.816;2024-03-06T02:21:32;4.20;;;3.90;;
545;SDS011;259;53.304;9.816;2024-03-06T02:23:58;4.97;;;4.53;;
545;SDS011;259;53.304;9.816;2024-03-06T02:26:23;4.50;;;4.10;;
545;SDS011;259;53.304;9.816;2024-03-06T02:28:50;4.40;;;4.03;;
545;SDS011;259;53.304;9.816;2024-03-06T02:31:17;4.40;;;4.00;;
545;SDS011;259;53.304;9.816;2024-03-06T02:33:44;4.17;;;3.80;;
545;SDS011;259;53.304;9.816;2024-03-06T02:36:12;3.63;;;3.43;;
545;SDS011;259;53.304;9.816;2024-03-06T02:38:42;3.80;;;3.50;;
545;SDS011;259;53.304;9.816;2024-03-06T02:41:08;4.20;;;3.90;;
545;SDS011;259;53.304;9.816;2024-03-06T02:43:35;3.80;;;3.60;;
545;SDS011;259;53.304;9.816;2024-03-06T02:46:01;3.87;;;3.57;;
545;SDS011;259;53.304;9.816;2024-03-06T02:48:27;4.17;;;3.87;;
545;SDS011;259;53.304;9.816;2024-03-06T02:50:53;4.27;;;3.97;;
545;SDS011;259;53.304;9.816;2024-03-06T02:53:19;4.37;;;4.07;;
545;SDS011;259;53.304;9.816;2024-03-06T02:55:45;4.77;;;4.37;;
545;SDS011;259;53.304;9.816;2024-03-06T02:58:10;4.30;;;4.00;;
545;SDS011;259;53.304;9.816;2024-03-06T03:00:36;4.10;;;3.80;;
545;SDS011;259;53.304;9.816;2024-03-06T03:03:04;3.90;;;3.60;;
545;SDS011;259;53.304;9.816;2024-03-06T03:05:30;4.17;;;3.83;;
545;SDS011;259;53.304;9.816;2024-03-06T03:07:56;5.20;;;4.80;;
545;SDS011;259;53.304;9.816;2024-03-06T03:10:21;4.50;;;4.17;;
545;SDS011;259;53.304;9.816;2024-03-06T03:12:49;4.30;;;3.90;;
545;SDS011;259;53.304;9.816;2024-03-06T03:15:15;4.27;;;3.97;;
545;SDS011;259;53.304;9.816;2024-03-06T03:17:41;4.23;;;3.93;;
545;SDS011;259;53.304;9.816;2024-03-06T03:20:07;4.23;;;3.93;;
545;SDS011;259;53.304;9.816;2024-03-06T03:22:39;4.07;;;3.77;;
545;SDS011;259;53.304;9.816;2024-03-06T03:25:11;4.63;;;4.30;;
545;SDS011;259;53.304;9.816;2024-03-06T03:27:41;4.40;;;4.10;;
545;SDS011;259;53.304;9.816;2024-03-06T03:30:09;4.60;;;4.23;;
545;SDS011;259;53.304;9.816;2024-03-06T03:32:38;4.70;;;4.33;;
545;SDS011;259;53.304;9.816;2024-03-06T03:35:07;4.63;;;4.23;;
545;SDS011;259;53.304;9.816;2024-03-06T03:37:33;3.97;;;3.73;;
545;SDS011;259;53.304;9.816;2024-03-06T03:39:59;4.47;;;4.17;;
545;SDS011;259;53.304;9.816;2024-03-06T03:42:25;4.20;;;3.90;;
545;SDS011;259;53.304;9.816;2024-03-06T03:44:51;4.07;;;3.77;;
545;SDS011;259;53.304;9.816;2024-03-06T03:47:17;3.70;;;3.40;;
545;SDS011;259;53.304;9.816;2024-03-06T03:49:43;4.03;;;3.73;;
545;SDS011;259;53.304;9.816;2024-03-06T03:52:09;4.07;;;3.77;;
545;SDS011;259;53.304;9.816;2024-03-06T03:54:34;4.00;;;3.70;;
545;SDS011;259;53.304;9.816;2024-03-06T03:57:00;4.80;;;4.40;;
545;SDS011;259;53.304;9.816;2024-03-06T03:59:26;4.17;;;3.87;;
545;SDS011;259;53.304;9.816;2024-03-06T04:01:52;3.77;;;3.47;;
545;SDS011;259;53.304;9.816;2024-03-06T04:04:18;3.73;;;3.40;;
545;SDS011;259;53.304;9.816;2024-03-06T04:06:43;4.80;;;4.50;;
545;SDS011;259;53.304;9.816;2024-03-06T04:09:10;3.93;;;3.63;;
545;SDS011;259;53.304;9.816;2024-03-06T04:11:36;4.20;;;3.80;;
545;SDS011;259;53.304;9.816;2024-03-06T04:14:03;3.60;;;3.40;;
545;SDS011;259;53.304;9.816;2024-03-06T04:16:29;3.70;;;3.40;;
545;SDS011;259;53.304;9.816;2024-03-06T04:18:55;3.87;;;3.57;;
545;SDS011;259;53.304;9.816;2024-03-06T04:21:21;3.93;;;3.73;;
545;SDS011;259;53.304;9.816;2024-03-06T04:23:47;4.10;;;3.80;;
545;SDS011;259;53.304;9.816;2024-03-06T04:26:13;4.30;;;4.00;;
545;SDS011;259;53.304;9.816;2024-03-06T04:28:39;3.33;;;3.13;;
545;SDS011;259;53.304;9.816;2024-03-06T04:31:05;4.20;;;3.90;;
545;SDS011;259;53.304;9.816;2024-03-06T04:33:31;4.10;;;3.80;;
545;SDS011;259;53.304;9.816;2024-03-06T04:35:56;4.40;;;4.10;;
545;SDS011;259;53.304;9.816;2024-03-06T04:38:22;4.20;;;3.80;;
545;SDS011;259;53.304;9.816;2024-03-06T04:40:48;4.17;;;3.87;;
545;SDS011;259;53.304;9.816;2024-03-06T04:43:13;3.53;;;3.33;;
545;SDS011;259;53.304;9.816;2024-03-06T04:45:39;4.50;;;4.20;;
545;SDS011;259;53.304;9.816;2024-03-06T04:48:05;4.20;;;3.90;;
545;SDS011;259;53.304;9.816;2024-03-06T04:50:31;3.90;;;3.60;;
545;SDS011;259;53.304;9.816;2024-03-06T04:52:57;4.10;;;3.80;;
545;SDS011;259;53.304;9.816;2024-03-06T04:55:23;4.03;;;3.73;;
545;SDS011;259;53.304;9.816;2024-03-06T04:57:50;3.60;;;3.40;;
545;SDS011;259;53.304;9.816;2024-03-06T05:00:17;3.73;;;3.43;;
545;SDS011;259;53.304;9.816;2024-03-06T05:02:43;4.60;;;4.20;;
545;SDS011;259;53.304;9.816;2024-03-06T05:05:09;4.40;;;4.00;;
545;SDS011;259;53.304;9.816;2024-03-06T05:07:35;4.10;;;3.80;;
545;SDS011;259;53.304;9.816;2024-03-06T05:10:00;5.00;;;4.60;;
545;SDS011;259;53.304;9.816;2024-03-06T05:12:26;4.47;;;4.07;;
545;SDS011;259;53.304;9.816;2024-03-06T05:14:53;4.37;;;4.07;;
545;SDS011;259;53.304;9.816;2024-03-06T05:17:20;3.23;;;3.03;;
545;SDS011;259;53.304;9.816;2024-03-06T05:19:46;4.40;;;4.00;;
545;SDS011;259;53.304;9.816;2024-03-06T05:22:14;4.37;;;4.07;;
545;SDS011;259;53.304;9.816;2024-03-06T05:24:40;4.17;;;3.87;;
545;SDS011;259;53.304;9.816;2024-03-06T05:27:09;4.00;;;3.70;;
545;SDS011;259;53.304;9.816;2024-03-06T05:29:38;3.53;;;3.33;;
545;SDS011;259;53.304;9.816;2024-03-06T05:32:04;3.90;;;3.60;;
545;SDS011;259;53.304;9.816;2024-03-06T05:34:32;4.17;;;3.83;;
545;SDS011;259;53.304;9.816;2024-03-06T05:36:58;4.03;;;3.73;;
545;SDS011;259;53.304;9.816;2024-03-06T05:39:26;4.33;;;4.00;;
545;SDS011;259;53.304;9.816;2024-03-06T05:41:54;3.90;;;3.60;;
545;SDS011;259;53.304;9.816;2024-03-06T05:44:20;3.20;;;3.00;;
545;SDS011;259;53.304;9.816;2024-03-06T05:46:46;4.00;;;3.70;;
545;SDS011;259;53.304;9.816;2024-03-06T05:49:15;3.47;;;3.27;;
545;SDS011;259;53.304;9.816;2024-03-06T05:51:40;4.23;;;3.93;;
545;SDS011;259;53.304;9.816;2024-03-06T05:54:06;3.73;;;3.43;;
545;SDS011;259;53.304;9.816;2024-03-06T05:56:34;3.90;;;3.60;;
545;SDS011;259;53.304;9.816;2024-03-06T05:59:00;4.10;;;3.80;;
545;SDS011;259;53.304;9.816;2024-03-06T06:01:29;3.93;;;3.60;;
545;SDS011;259;53.304;9.816;2024-03-06T06:03:56;3.57;;;3.27;;
545;SDS011;259;53.304;9.816;2024-03-06T06:06:21;3.50;;;3.30;;
545;SDS011;259;53.304;9.816;2024-03-06T06:08:47;3.90;;;3.60;;
545;SDS011;259;53.304;9.816;2024-03-06T06:11:13;3.83;;;3.53;;
545;SDS011;259;53.304;9.816;2024-03-06T06:13:39;3.50;;;3.30;;
545;SDS011;259;53.304;9.816;2024-03-06T06:16:05;4.50;;;4.17;;
545;SDS011;259;53.304;9.816;2024-03-06T06:18:31;3.90;;;3.60;;
545;SDS011;259;53.304;9.816;2024-03-06T06:20:57;3.67;;;3.37;;
545;SDS011;259;53.304;9.816;2024-03-06T06:23:23;4.33;;;4.03;;
545;SDS011;259;53.304;9.816;2024-03-06T06:25:49;4.17;;;3.87;;
545;SDS011;259;53.304;9.816;2024-03-06T06:28:15;3.30;;;3.10;;
545;SDS011;259;53.304;9.816;2024-03-06T06:30:41;3.57;;;3.37;;
545;SDS011;259;53.304;9.816;2024-03-06T06:33:07;3.77;;;3.47;;
545;SDS011;259;53.304;9.816;2024-03-06T06:35:33;3.20;;;3.00;;
545;SDS011;259;53.304;9.816;2024-03-06T06:38:02;3.80;;;3.50;;
545;SDS011;259;53.304;9.816;2024-03-06T06:40:29;4.47;;;4.07;;
545;SDS011;259;53.304;9.816;2024-03-06T06:42:55;3.33;;;3.13;;
545;SDS011;259;53.304;9.816;2024-03-06T06:45:21;4.23;;;3.80;;
545;SDS011;259;53.304;9.816;2024-03-06T06:47:48;3.92;;;3.53;;
545;SDS011;259;53.304;9.816;2024-03-06T06:50:15;6.33;;;5.27;;
545;SDS011;259;53.304;9.816;2024-03-06T06:52:41;7.73;;;7.00;;
545;SDS011;259;53.304;9.816;2024-03-06T06:55:07;9.07;;;7.40;;
545;SDS011;259;53.304;9.816;2024-03-06T06:57:36;10.63;;;6.77;;
545;SDS011;259;53.304;9.816;2024-03-06T07:00:03;7.53;;;6.77;;
545;SDS011;259;53.304;9.816;2024-03-06T07:02:36;9.67;;;6.60;;
545;SDS011;259;53.304;9.816;2024-03-06T07:05:04;8.43;;;7.07;;
545;SDS011;259;53.304;9.816;2024-03-06T07:07:30;7.30;;;6.27;;
545;SDS011;259;53.304;9.816;2024-03-06T07:09:56;8.43;;;6.50;;
545;SDS011;259;53.304;9.816;2024-03-06T07:12:22;9.03;;;6.33;;
545;SDS011;259;53.304;9.816;2024-03-06T07:14:49;6.60;;;5.63;;
545;SDS011;259;53.304;9.816;2024-03-06T07:17:14;10.97;;;6.30;;
545;SDS011;259;53.304;9.816;2024-03-06T07:19:40;7.53;;;5.50;;
545;SDS011;259;53.304;9.816;2024-03-06T07:22:06;5.80;;;5.30;;
545;SDS011;259;53.304;9.816;2024-03-06T07:24:31;6.07;;;5.57;;
545;SDS011;259;53.304;9.816;2024-03-06T07:26:57;6.37;;;5.77;;
545;SDS011;259;53.304;9.816;2024-03-06T07:29:26;5.93;;;5.27;;
545;SDS011;259;53.304;9.816;2024-03-06T07:31:52;5.90;;;5.40;;
545;SDS011;259;53.304;9.816;2024-03-06T07:34:19;5.90;;;5.50;;
545;SDS011;259;53.304;9.816;2024-03-06T07:36:48;5.50;;;4.40;;
545;SDS011;259;53.304;9.816;2024-03-06T07:39:18;5.97;;;5.37;;
545;SDS011;259;53.304;9.816;2024-03-06T07:41:45;6.00;;;5.30;;
545;SDS011;259;53.304;9.816;2024-03-06T07:44:11;6.03;;;4.97;;
545;SDS011;259;53.304;9.816;2024-03-06T07:46:37;5.70;;;4.97;;
545;SDS011;259;53.304;9.816;2024-03-06T07:49:03;5.80;;;4.73;;
545;SDS011;259;53.304;9.816;2024-03-06T07:51:30;6.43;;;4.63;;
545;SDS011;259;53.304;9.816;2024-03-06T07:53:56;4.90;;;4.33;;
545;SDS011;259;53.304;9.816;2024-03-06T07:56:22;5.00;;;4.60;;
545;SDS011;259;53.304;9.816;2024-03-06T07:58:49;5.73;;;5.07;;
545;SDS011;259;53.304;9.816;2024-03-06T08:01:15;4.30;;;3.90;;
545;SDS011;259;53.304;9.816;2024-03-06T08:03:42;4.93;;;3.93;;
545;SDS011;259;53.304;9.816;2024-03-06T08:06:08;4.97;;;4.57;;
545;SDS011;259;53.304;9.816;2024-03-06T08:08:35;4.83;;;4.43;;
545;SDS011;259;53.304;9.816;2024-03-06T08:11:01;5.00;;;4.50;;
545;SDS011;259;53.304;9.816;2024-03-06T08:13:28;4.33;;;4.03;;
545;SDS011;259;53.304;9.816;2024-03-06T08:15:54;5.03;;;4.63;;
545;SDS011;259;53.304;9.816;2024-03-06T08:18:20;4.13;;;3.80;;
545;SDS011;259;53.304;9.816;2024-03-06T08:20:45;4.93;;;4.53;;
545;SDS011;259;53.304;9.816;2024-03-06T08:23:11;4.43;;;4.03;;
545;SDS011;259;53.304;9.816;2024-03-06T08:25:37;4.00;;;3.70;;
545;SDS011;259;53.304;9.816;2024-03-06T08:28:03;7.30;;;4.73;;
545;SDS011;259;53.304;9.816;2024-03-06T08:30:30;4.90;;;4.50;;
545;SDS011;259;53.304;9.816;2024-03-06T08:32:57;4.20;;;3.90;;
545;SDS011;259;53.304;9.816;2024-03-06T08:35:23;4.30;;;3.90;;
545;SDS011;259;53.304;9.816;2024-03-06T08:37:49;4.17;;;3.87;;
545;SDS011;259;53.304;9.816;2024-03-06T08:40:15;4.50;;;4.00;;
545;SDS011;259;53.304;9.816;2024-03-06T08:42:45;4.20;;;3.90;;
545;SDS011;259;53.304;9.816;2024-03-06T08:45:15;4.57;;;4.17;;
545;SDS011;259;53.304;9.816;2024-03-06T08:47:41;4.13;;;3.83;;
545;SDS011;259;53.304;9.816;2024-03-06T08:50:09;3.80;;;3.57;;
545;SDS011;259;53.304;9.816;2024-03-06T08:52:35;4.47;;;4.17;;
545;SDS011;259;53.304;9.816;2024-03-06T08:55:02;4.20;;;3.90;;
545;SDS011;259;53.304;9.816;2024-03-06T08:57:29;4.00;;;3.70;;
545;SDS011;259;53.304;9.816;2024-03-06T08:59:56;3.80;;;3.40;;
545;SDS011;259;53.304;9.816;2024-03-06T09:02:25;3.53;;;3.33;;
545;SDS011;259;53.304;9.816;2024-03-06T09:04:51;4.40;;;4.10;;
545;SDS011;259;53.304;9.816;2024-03-06T09:07:18;4.10;;;3.80;;
545;SDS011;259;53.304;9.816;2024-03-06T09:09:46;3.87;;;3.57;;
545;SDS011;259;53.304;9.816;2024-03-06T09:12:11;3.60;;;3.40;;
545;SDS011;259;53.304;9.816;2024-03-06T09:14:38;3.87;;;3.60;;
545;SDS011;259;53.304;9.816;2024-03-06T09:17:05;3.70;;;3.50;;
545;SDS011;259;53.304;9.816;2024-03-06T09:19:31;3.27;;;2.97;;
545;SDS011;259;53.304;9.816;2024-03-06T09:21:57;3.93;;;3.67;;
545;SDS011;259;53.304;9.816;2024-03-06T09:24:24;4.20;;;3.90;;
545;SDS011;259;53.304;9.816;2024-03-06T09:26:50;3.90;;;3.63;;
545;SDS011;259;53.304;9.816;2024-03-06T09:29:19;4.07;;;3.77;;
545;SDS011;259;53.304;9.816;2024-03-06T09:31:45;3.53;;;3.33;;
545;SDS011;259;53.304;9.816;2024-03-06T09:34:12;3.87;;;3.57;;
545;SDS011;259;53.304;9.816;2024-03-06T09:36:42;3.63;;;3.33;;
545;SDS011;259;53.304;9.816;2024-03-06T09:39:14;4.10;;;3.80;;
545;SDS011;259;53.304;9.816;2024-03-06T09:41:48;4.10;;;3.80;;
545;SDS011;259;53.304;9.816;2024-03-06T09:44:15;3.00;;;2.80;;
545;SDS011;259;53.304;9.816;2024-03-06T09:46:45;3.97;;;3.70;;
545;SDS011;259;53.304;9.816;2024-03-06T09:49:14;3.50;;;3.30;;
545;SDS011;259;53.304;9.816;2024-03-06T09:51:47;3.47;;;3.27;;
545;SDS011;259;53.304;9.816;2024-03-06T09:54:19;3.60;;;3.30;;
545;SDS011;259;53.304;9.816;2024-03-06T09:56:45;3.77;;;3.50;;
545;SDS011;259;53.304;9.816;2024-03-06T09:59:12;4.40;;;4.00;;
545;SDS011;259;53.304;9.816;2024-03-06T10:01:40;4.17;;;3.90;;
545;SDS011;259;53.304;9.816;2024-03-06T10:04:22;4.10;;;3.80;;
545;SDS011;259;53.304;9.816;2024-03-06T10:06:52;3.97;;;3.67;;
545;SDS011;259;53.304;9.816;2024-03-06T10:09:22;4.00;;;3.70;;
545;SDS011;259;53.304;9.816;2024-03-06T10:11:49;4.27;;;3.97;;
545;SDS011;259;53.304;9.816;2024-03-06T10:14:17;3.60;;;3.30;;
545;SDS011;259;53.304;9.816;2024-03-06T10:16:53;3.50;;;3.30;;
545;SDS011;259;53.304;9.816;2024-03-06T10:19:23;4.40;;;4.10;;
545;SDS011;259;53.304;9.816;2024-03-06T10:21:52;4.03;;;3.73;;
545;SDS011;259;53.304;9.816;2024-03-06T10:24:22;3.90;;;3.60;;
545;SDS011;259;53.304;9.816;2024-03-06T10:26:54;3.90;;;3.60;;
545;SDS011;259;53.304;9.816;2024-03-06T10:29:25;3.57;;;3.33;;
545;SDS011;259;53.304;9.816;2024-03-06T10:31:52;4.10;;;3.70;;
545;SDS011;259;53.304;9.816;2024-03-06T10:34:25;4.43;;;4.13;;
545;SDS011;259;53.304;9.816;2024-03-06T10:39:23;4.00;;;3.70;;
545;SDS011;259;53.304;9.816;2024-03-06T10:41:56;3.87;;;3.57;;
545;SDS011;259;53.304;9.816;2024-03-06T10:44:23;3.70;;;3.50;;
545;SDS011;259;53.304;9.816;2024-03-06T10:46:59;4.00;;;3.70;;
545;SDS011;259;53.304;9.816;2024-03-06T10:49:26;4.20;;;3.80;;
545;SDS011;259;53.304;9.816;2024-03-06T10:51:54;4.13;;;3.83;;
545;SDS011;259;53.304;9.816;2024-03-06T10:54:31;4.13;;;3.83;;
545;SDS011;259;53.304;9.816;2024-03-06T10:56:59;3.70;;;3.40;;
545;SDS011;259;53.304;9.816;2024-03-06T10:59:27;4.00;;;3.70;;
545;SDS011;259;53.304;9.816;2024-03-06T11:01:55;3.90;;;3.60;;
545;SDS011;259;53.304;9.816;2024-03-06T11:04:23;4.17;;;3.87;;
545;SDS011;259;53.304;9.816;2024-03-06T11:06:55;4.50;;;4.10;;
545;SDS011;259;53.304;9.816;2024-03-06T11:09:21;4.00;;;3.70;;
545;SDS011;259;53.304;9.816;2024-03-06T11:11:48;3.40;;;3.13;;
545;SDS011;259;53.304;9.816;2024-03-06T11:14:18;4.50;;;4.20;;
545;SDS011;259;53.304;9.816;2024-03-06T11:17:07;3.40;;;3.20;;
545;SDS011;259;53.304;9.816;2024-03-06T11:20:19;3.97;;;3.67;;
545;SDS011;259;53.304;9.816;2024-03-06T11:28:32;3.47;;;3.27;;
545;SDS011;259;53.304;9.816;2024-03-06T11:31:01;3.33;;;3.13;;
545;SDS011;259;53.304;9.816;2024-03-06T11:33:39;3.87;;;3.57;;
545;SDS011;259;53.304;9.816;2024-03-06T11:36:19;3.60;;;3.30;;
545;SDS011;259;53.304;9.816;2024-03-06T11:38:56;3.50;;;3.30;;
545;SDS011;259;53.304;9.816;2024-03-06T11:41:32;3.87;;;3.53;;
545;SDS011;259;53.304;9.816;2024-03-06T11:44:07;3.60;;;3.30;;
545;SDS011;259;53.304;9.816;2024-03-06T11:46:44;3.70;;;3.40;;
545;SDS011;259;53.304;9.816;2024-03-06T11:49:23;3.80;;;3.50;;
545;SDS011;259;53.304;9.816;2024-03-06T11:51:51;4.20;;;3.90;;
545;SDS011;259;53.304;9.816;2024-03-06T11:54:18;4.23;;;3.93;;
545;SDS011;259;53.304;9.816;2024-03-06T11:56:48;4.40;;;4.10;;
545;SDS011;259;53.304;9.816;2024-03-06T11:59:16;3.77;;;3.47;;
545;SDS011;259;53.304;9.816;2024-03-06T12:01:53;3.97;;;3.67;;
545;SDS011;259;53.304;9.816;2024-03-06T12:04:23;3.63;;;3.43;;
545;SDS011;259;53.304;9.816;2024-03-06T12:06:50;3.93;;;3.63;;
545;SDS011;259;53.304;9.816;2024-03-06T12:09:16;4.37;;;4.07;;
545;SDS011;259;53.304;9.816;2024-03-06T12:11:42;4.77;;;4.37;;
545;SDS011;259;53.304;9.816;2024-03-06T12:14:12;4.70;;;3.70;;
545;SDS011;259;53.304;9.816;2024-03-06T12:16:41;3.87;;;3.57;;
545;SDS011;259;53.304;9.816;2024-03-06T12:19:08;4.23;;;3.83;;
545;SDS011;259;53.304;9.816;2024-03-06T12:21:34;3.50;;;3.20;;
545;SDS011;259;53.304;9.816;2024-03-06T12:24:04;4.10;;;3.80;;
545;SDS011;259;53.304;9.816;2024-03-06T12:26:31;4.70;;;4.40;;
545;SDS011;259;53.304;9.816;2024-03-06T12:29:17;3.83;;;3.53;;
545;SDS011;259;53.304;9.816;2024-03-06T12:31:46;3.83;;;3.53;;
545;SDS011;259;53.304;9.816;2024-03-06T12:34:15;3.60;;;3.30;;
545;SDS011;259;53.304;9.816;2024-03-06T12:36:44;3.87;;;3.57;;
545;SDS011;259;53.304;9.816;2024-03-06T12:39:10;4.20;;;3.90;;
545;SDS011;259;53.304;9.816;2024-03-06T12:41:43;3.77;;;3.57;;
545;SDS011;259;53.304;9.816;2024-03-06T12:44:09;3.87;;;3.63;;
545;SDS011;259;53.304;9.816;2024-03-06T12:46:34;4.10;;;3.70;;
545;SDS011;259;53.304;9.816;2024-03-06T12:49:00;3.60;;;3.40;;
545;SDS011;259;53.304;9.816;2024-03-06T12:51:27;3.90;;;3.60;;
545;SDS011;259;53.304;9.816;2024-03-06T12:53:52;4.30;;;4.00;;
545;SDS011;259;53.304;9.816;2024-03-06T12:56:18;4.57;;;4.20;;
545;SDS011;259;53.304;9.816;2024-03-06T12:58:44;4.20;;;3.90;;
545;SDS011;259;53.304;9.816;2024-03-06T13:01:10;3.53;;;3.33;;
545;SDS011;259;53.304;9.816;2024-03-06T13:03:36;4.33;;;4.03;;
545;SDS011;259;53.304;9.816;2024-03-06T13:06:03;4.10;;;3.80;;
545;SDS011;259;53.304;9.816;2024-03-06T13:08:30;4.37;;;4.07;;
545;SDS011;259;53.304;9.816;2024-03-06T13:10:56;4.37;;;3.97;;
545;SDS011;259;53.304;9.816;2024-03-06T13:13:22;4.60;;;4.30;;
545;SDS011;259;53.304;9.816;2024-03-06T13:15:53;4.13;;;3.83;;
545;SDS011;259;53.304;9.816;2024-03-06T13:18:19;4.03;;;3.73;;
545;SDS011;259;53.304;9.816;2024-03-06T13:20:45;3.97;;;3.67;;
545;SDS011;259;53.304;9.816;2024-03-06T13:23:11;4.87;;;4.47;;
545;SDS011;259;53.304;9.816;2024-03-06T13:25:38;4.43;;;4.10;;
545;SDS011;259;53.304;9.816;2024-03-06T13:28:03;3.90;;;3.60;;
545;SDS011;259;53.304;9.816;2024-03-06T13:30:30;3.97;;;3.67;;
545;SDS011;259;53.304;9.816;2024-03-06T13:32:56;4.33;;;4.03;;
545;SDS011;259;53.304;9.816;2024-03-06T13:35:22;4.23;;;3.90;;
545;SDS011;259;53.304;9.816;2024-03-06T13:37:48;4.00;;;3.70;;
545;SDS011;259;53.304;9.816;2024-03-06T13:40:16;4.07;;;3.77;;
545;SDS011;259;53.304;9.816;2024-03-06T13:42:42;4.37;;;4.07;;
545;SDS011;259;53.304;9.816;2024-03-06T13:45:08;3.43;;;3.23;;
545;SDS011;259;53.304;9.816;2024-03-06T13:47:39;4.70;;;4.33;;
545;SDS011;259;53.304;9.816;2024-03-06T13:50:09;4.40;;;4.10;;
545;SDS011;259;53.304;9.816;2024-03-06T13:52:37;4.30;;;3.97;;
545;SDS011;259;53.304;9.816;2024-03-06T13:55:03;4.70;;;4.30;;
545;SDS011;259;53.304;9.816;2024-03-06T13:57:30;5.03;;;4.63;;
545;SDS011;259;53.304;9.816;2024-03-06T13:59:58;3.83;;;3.53;;
545;SDS011;259;53.304;9.816;2024-03-06T14:02:30;4.33;;;4.03;;
545;SDS011;259;53.304;9.816;2024-03-06T14:04:56;4.17;;;3.87;;
545;SDS011;259;53.304;9.816;2024-03-06T14:07:22;4.30;;;4.00;;
545;SDS011;259;53.304;9.816;2024-03-06T14:09:49;3.50;;;3.27;;
545;SDS011;259;53.304;9.816;2024-03-06T14:12:16;3.63;;;3.40;;
545;SDS011;259;53.304;9.816;2024-03-06T14:14:42;3.97;;;3.60;;
545;SDS011;259;53.304;9.816;2024-03-06T14:17:08;4.60;;;4.20;;
545;SDS011;259;53.304;9.816;2024-03-06T14:19:34;4.77;;;4.47;;
545;SDS011;259;53.304;9.816;2024-03-06T14:21:59;4.20;;;3.83;;
545;SDS011;259;53.304;9.816;2024-03-06T14:24:25;3.90;;;3.60;;
545;SDS011;259;53.304;9.816;2024-03-06T14:26:51;4.50;;;4.20;;
545;SDS011;259;53.304;9.816;2024-03-06T14:29:17;4.20;;;3.90;;
545;SDS011;259;53.304;9.816;2024-03-06T14:31:42;4.03;;;3.73;;
545;SDS011;259;53.304;9.816;2024-03-06T14:34:08;3.50;;;3.30;;
545;SDS011;259;53.304;9.816;2024-03-06T14:36:35;4.00;;;3.70;;
545;SDS011;259;53.304;9.816;2024-03-06T14:39:01;4.10;;;3.80;;
545;SDS011;259;53.304;9.816;2024-03-06T14:41:26;4.70;;;4.33;;
545;SDS011;259;53.304;9.816;2024-03-06T14:43:52;4.10;;;3.70;;
545;SDS011;259;53.304;9.816;2024-03-06T14:46:19;4.30;;;4.00;;
545;SDS011;259;53.304;9.816;2024-03-06T14:48:44;3.50;;;3.30;;
545;SDS011;259;53.304;9.816;2024-03-06T14:51:10;4.10;;;3.80;;
545;SDS011;259;53.304;9.816;2024-03-06T14:53:36;4.07;;;3.77;;
545;SDS011;259;53.304;9.816;2024-03-06T14:56:02;4.17;;;3.87;;
545;SDS011;259;53.304;9.816;2024-03-06T14:58:28;4.57;;;4.27;;
545;SDS011;259;53.304;9.816;2024-03-06T15:00:54;3.57;;;3.37;;
545;SDS011;259;53.304;9.816;2024-03-06T15:03:19;5.00;;;4.60;;
545;SDS011;259;53.304;9.816;2024-03-06T15:05:45;3.60;;;3.40;;
545;SDS011;259;53.304;9.816;2024-03-06T15:08:11;3.70;;;3.47;;
545;SDS011;259;53.304;9.816;2024-03-06T15:10:37;3.90;;;3.60;;
545;SDS011;259;53.304;9.816;2024-03-06T15:13:03;4.40;;;4.10;;
545;SDS011;259;53.304;9.816;2024-03-06T15:15:29;4.10;;;3.80;;
545;SDS011;259;53.304;9.816;2024-03-06T15:17:56;3.77;;;3.47;;
545;SDS011;259;53.304;9.816;2024-03-06T15:20:23;3.97;;;3.67;;
545;SDS011;259;53.304;9.816;2024-03-06T15:22:48;4.30;;;3.90;;
545;SDS011;259;53.304;9.816;2024-03-06T15:25:17;4.10;;;3.80;;
545;SDS011;259;53.304;9.816;2024-03-06T15:27:43;4.20;;;3.80;;
545;SDS011;259;53.304;9.816;2024-03-06T15:30:09;3.63;;;3.33;;
545;SDS011;259;53.304;9.816;2024-03-06T15:32:36;3.67;;;3.37;;
545;SDS011;259;53.304;9.816;2024-03-06T15:35:03;4.00;;;3.73;;
545;SDS011;259;53.304;9.816;2024-03-06T15:37:30;4.03;;;3.73;;
545;SDS011;259;53.304;9.816;2024-03-06T15:39:57;4.60;;;4.30;;
545;SDS011;259;53.304;9.816;2024-03-06T15:42:23;4.40;;;4.10;;
545;SDS011;259;53.304;9.816;2024-03-06T15:44:50;4.57;;;4.27;;
545;SDS011;259;53.304;9.816;2024-03-06T15:47:17;3.83;;;3.63;;
545;SDS011;259;53.304;9.816;2024-03-06T15:49:44;4.30;;;4.00;;
545;SDS011;259;53.304;9.816;2024-03-06T15:52:11;3.47;;;3.27;;
545;SDS011;259;53.304;9.816;2024-03-06T15:54:37;4.43;;;4.13;;